Time;durP1;ratioP1;P1;durP2;ratioP2;P2;SDS_P1;SDS_P2;PMS_P1;PMS_P2;Temp;Humidity;BMP_temperature;BMP_pressure;BME280_temperature;BME280_humidity;BME280_pressure;Samples;Min_cycle;Max_cycle;Signal;HPM_P1;HPM_P2
2021/07/13 00:05:42;;;;;;;14;10.3;;;;;;;16.7;100;98274.57;;;;
2021/07/13 00:15:42;;;;;;;12.6;9.3;;;;;;;16.72;100;98264.14;;;;
2021/07/13 00:25:42;;;;;;;11.3;8.6;;;;;;;16.71;100;98251.66;;;;
2021/07/13 00:35:41;;;;;;;18.4;10.6;;;;;;;16.64;100;98244.14;;;;
2021/07/13 00:45:41;;;;;;;17.4;11.8;;;;;;;16.61;100;98223.08;;;;
2021/07/13 00:55:41;;;;;;;11.5;9.7;;;;;;;16.58;100;98237.41;;;;
2021/07/13 01:05:41;;;;;;;10.2;8.3;;;;;;;16.54;100;98222.9;;;;
2021/07/13 01:15:41;;;;;;;15.3;10.8;;;;;;;16.38;100;98220.2;;;;
2021/07/13 01:25:40;;;;;;;13.2;10.9;;;;;;;16.29;100;98222.33;;;;
2021/07/13 01:35:40;;;;;;;16.3;10.8;;;;;;;16.3;100;98221.2;;;;
2021/07/13 01:45:40;;;;;;;17.1;10.9;;;;;;;16.16;100;98212.7;;;;
2021/07/13 01:55:39;;;;;;;14.7;11.7;;;;;;;16.23;100;98215.59;;;;
2021/07/13 02:05:39;;;;;;;15.1;9.4;;;;;;;16.26;100;98222.25;;;;
2021/07/13 02:15:39;;;;;;;13.4;11.5;;;;;;;16.16;100;98223.58;;;;
2021/07/13 02:25:38;;;;;;;15;11.1;;;;;;;16.08;100;98219.11;;;;
2021/07/13 02:35:38;;;;;;;12.3;9.8;;;;;;;16.08;100;98222.62;;;;
2021/07/13 02:45:38;;;;;;;14.2;10.4;;;;;;;16.07;100;98237.34;;;;
2021/07/13 02:55:37;;;;;;;17;12;;;;;;;15.96;100;98239.03;;;;
2021/07/13 03:05:37;;;;;;;14.2;10.1;;;;;;;15.92;100;98240.88;;;;
2021/07/13 03:15:37;;;;;;;15.5;11.8;;;;;;;15.92;100;98246.31;;;;
2021/07/13 03:25:36;;;;;;;12.9;9.8;;;;;;;16.06;100;98241.22;;;;
2021/07/13 03:35:36;;;;;;;14.1;10.6;;;;;;;16.29;100;98237.85;;;;
2021/07/13 03:45:36;;;;;;;13.7;10.6;;;;;;;16.51;100;98218.97;;;;
2021/07/13 03:55:35;;;;;;;20.9;13.7;;;;;;;16.78;100;98216.44;;;;
2021/07/13 04:05:35;;;;;;;17.4;13.6;;;;;;;16.83;100;98225.13;;;;
2021/07/13 04:15:35;;;;;;;17;13.2;;;;;;;17.18;100;98229.72;;;;
2021/07/13 04:25:35;;;;;;;13.1;11.5;;;;;;;17.18;100;98219.59;;;;
2021/07/13 04:35:35;;;;;;;12.3;10.1;;;;;;;17.2;100;98235.58;;;;
2021/07/13 04:45:35;;;;;;;10.7;9.1;;;;;;;17.17;100;98230.86;;;;
2021/07/13 04:55:35;;;;;;;13.4;11.3;;;;;;;17.42;100;98241.07;;;;
2021/07/13 05:05:35;;;;;;;16;11.1;;;;;;;17.51;100;98233.48;;;;
2021/07/13 05:15:35;;;;;;;14.7;12.4;;;;;;;17.73;100;98234.69;;;;
2021/07/13 05:25:35;;;;;;;14.3;12.9;;;;;;;17.91;100;98229.55;;;;
2021/07/13 05:35:35;;;;;;;15.3;13.7;;;;;;;18.38;100;98238.09;;;;
2021/07/13 05:45:35;;;;;;;20.2;14.7;;;;;;;18.92;100;98245.89;;;;
2021/07/13 05:55:35;;;;;;;16.8;12.4;;;;;;;19.17;100;98242.69;;;;
2021/07/13 06:05:35;;;;;;;14;10.5;;;;;;;19.51;100;98238.81;;;;
2021/07/13 06:15:36;;;;;;;10.4;8.7;;;;;;;20.21;100;98240.63;;;;
2021/07/13 06:25:36;;;;;;;11.2;9;;;;;;;20.47;100;98245.95;;;;
2021/07/13 06:35:36;;;;;;;13.1;11;;;;;;;20.8;100;98221.11;;;;
2021/07/13 06:45:37;;;;;;;14.1;9.1;;;;;;;20.87;100;98220.36;;;;
2021/07/13 06:55:37;;;;;;;18.3;9.2;;;;;;;21.04;100;98219.66;;;;
2021/07/13 07:05:37;;;;;;;17;7.5;;;;;;;21.27;100;98206.48;;;;
2021/07/13 07:15:38;;;;;;;8.9;7.1;;;;;;;21.85;100;98203.45;;;;
2021/07/13 07:25:38;;;;;;;10;7.7;;;;;;;22.46;100;98198.72;;;;
2021/07/13 07:35:39;;;;;;;11.5;7.7;;;;;;;22.67;100;98190.47;;;;
2021/07/13 07:45:39;;;;;;;9.9;7.1;;;;;;;22.73;100;98194.39;;;;
2021/07/13 07:55:40;;;;;;;8.1;5.4;;;;;;;23.09;100;98186.78;;;;
2021/07/13 08:05:42;;;;;;;8.1;6.6;;;;;;;23.67;100;98177.06;;;;
2021/07/13 08:15:41;;;;;;;8.6;6.5;;;;;;;23.82;100;98187.55;;;;
2021/07/13 08:25:42;;;;;;;8.6;7.3;;;;;;;24.39;100;98184.34;;;;
2021/07/13 08:35:43;;;;;;;9.4;7.3;;;;;;;24.89;100;98179.09;;;;
2021/07/13 08:45:45;;;;;;;8.4;7.1;;;;;;;25.37;100;98185.16;;;;
2021/07/13 08:55:45;;;;;;;9.2;8.3;;;;;;;25.22;100;98189.33;;;;
2021/07/13 09:05:46;;;;;;;11.5;8.4;;;;;;;25.52;100;98180.25;;;;
2021/07/13 09:15:46;;;;;;;9.4;6.3;;;;;;;25.67;100;98176.09;;;;
2021/07/13 09:25:50;;;;;;;9.4;7.6;;;;;;;26.02;100;98174.76;;;;
2021/07/13 09:35:48;;;;;;;9.2;7.6;;;;;;;26.34;100;98177.79;;;;
2021/07/13 09:45:49;;;;;;;9.5;7.5;;;;;;;26.25;100;98174.77;;;;
2021/07/13 09:55:51;;;;;;;8.4;7;;;;;;;26.78;100;98168.27;;;;
2021/07/13 10:05:52;;;;;;;8.9;6.4;;;;;;;27.23;100;98162.22;;;;
2021/07/13 10:15:53;;;;;;;7;5.6;;;;;;;27.6;100;98159.03;;;;
2021/07/13 10:25:55;;;;;;;9.5;6.8;;;;;;;27.19;100;98153.21;;;;
2021/07/13 10:35:56;;;;;;;18.2;7.6;;;;;;;27.59;100;98154.72;;;;
2021/07/13 10:45:57;;;;;;;7.5;6.2;;;;;;;27.5;100;98147;;;;
2021/07/13 11:16:01;;;;;;;9.4;7.2;;;;;;;28.41;100;98125.75;;;;
2021/07/13 11:26:05;;;;;;;11.2;5.3;;;;;;;28.42;100;98113.45;;;;
2021/07/13 11:36:04;;;;;;;10.5;6.3;;;;;;;28.35;100;98083.94;;;;
2021/07/13 11:46:11;;;;;;;7.2;6.1;;;;;;;28.63;100;98085.14;;;;
2021/07/13 11:56:06;;;;;;;9.3;6.3;;;;;;;28.65;100;98090.23;;;;
2021/07/13 12:06:10;;;;;;;8.7;6.5;;;;;;;28.96;98.0498;98069.13;;;;
2021/07/13 12:16:16;;;;;;;8.8;6.5;;;;;;;29.05;93.43457;98060.16;;;;
2021/07/13 12:26:26;;;;;;;7.2;6.4;;;;;;;29.29;95.17188;98058.63;;;;
2021/07/13 12:36:12;;;;;;;8.8;6.9;;;;;;;29.43;97.02734;98052.63;;;;
2021/07/13 12:46:23;;;;;;;9.2;6.2;;;;;;;29.42;98.08887;98048.28;;;;
2021/07/13 12:56:15;;;;;;;9.6;7.6;;;;;;;29.72;97.49805;98038.55;;;;
2021/07/13 13:06:17;;;;;;;9.4;6.6;;;;;;;29.74;98.84863;98036.12;;;;
2021/07/13 13:16:19;;;;;;;10.6;7.6;;;;;;;29.57;100;98009.72;;;;
2021/07/13 13:26:19;;;;;;;10.2;7.6;;;;;;;29.8;95.53516;98003.75;;;;
2021/07/13 13:36:24;;;;;;;10.8;8.1;;;;;;;29.87;97.70801;97995.98;;;;
2021/07/13 13:46:23;;;;;;;9.3;6.1;;;;;;;30.16;96.41895;97983.85;;;;
2021/07/13 13:56:27;;;;;;;7.4;5.7;;;;;;;30.52;94.88672;97966.63;;;;
2021/07/13 14:06:26;;;;;;;9;6.2;;;;;;;30.68;91.16113;97964.41;;;;
2021/07/13 14:16:27;;;;;;;7.1;4.8;;;;;;;30.99;87.97168;97960.84;;;;
2021/07/13 14:26:29;;;;;;;16.8;7.6;;;;;;;31.3;87.85645;97959.55;;;;
2021/07/13 14:36:31;;;;;;;10.5;7.4;;;;;;;31.11;89.72852;97955.15;;;;
2021/07/13 14:46:33;;;;;;;8.5;6.7;;;;;;;31.5;85.48828;97952.75;;;;
2021/07/13 14:56:34;;;;;;;15.7;6.8;;;;;;;31.5;86.84473;97952.75;;;;
2021/07/13 15:06:36;;;;;;;7.9;5.6;;;;;;;32.17;86.75879;97947.06;;;;
2021/07/13 15:16:38;;;;;;;9;6.6;;;;;;;33.74;86.2373;97942.63;;;;
2021/07/13 15:26:40;;;;;;;8.1;5.6;;;;;;;34.22;81.87305;97928.56;;;;
2021/07/13 15:36:42;;;;;;;7.2;5.2;;;;;;;33.98;76.88672;97913.86;;;;
2021/07/13 15:46:44;;;;;;;8.5;6.4;;;;;;;33.96;77.49121;97894.75;;;;
2021/07/13 15:56:47;;;;;;;7.2;5.1;;;;;;;34.82;74.69141;97895.19;;;;
2021/07/13 16:06:49;;;;;;;8.2;5.5;;;;;;;34.91;73.72852;97885.91;;;;
2021/07/13 16:16:52;;;;;;;7.1;4.8;;;;;;;34.84;73.63281;97892.69;;;;
2021/07/13 16:26:54;;;;;;;6.5;5.6;;;;;;;34.57;73.6377;97879;;;;
2021/07/13 16:36:56;;;;;;;6.7;4.8;;;;;;;33.67;75.23047;97887.09;;;;
2021/07/13 16:46:58;;;;;;;7.7;6.1;;;;;;;34.02;76.84668;97897.66;;;;
2021/07/13 16:57:01;;;;;;;8.9;5.6;;;;;;;33.54;78.09668;97899.75;;;;
2021/07/13 17:07:03;;;;;;;8.7;6.1;;;;;;;33.32;77.95313;97898.05;;;;
2021/07/13 17:17:05;;;;;;;8.8;5.7;;;;;;;33.21;78.71777;97902.66;;;;
2021/07/13 17:27:07;;;;;;;11.3;7.2;;;;;;;32.26;83.76172;97899.63;;;;
2021/07/13 17:37:09;;;;;;;9.1;5.5;;;;;;;31.63;86.05566;97919.97;;;;
2021/07/13 17:47:10;;;;;;;9.8;7.1;;;;;;;30.26;95.59473;97918.73;;;;
2021/07/13 17:57:12;;;;;;;12.8;8.2;;;;;;;29.7;100;97921.56;;;;
2021/07/13 18:07:13;;;;;;;15.6;11.6;;;;;;;29.15;100;97934.15;;;;
2021/07/13 18:17:15;;;;;;;12.2;9.5;;;;;;;28.26;100;97942.42;;;;
2021/07/13 18:27:19;;;;;;;16.1;11.4;;;;;;;27.65;100;97959.16;;;;
2021/07/13 18:37:17;;;;;;;20.7;9.1;;;;;;;27.05;100;97957.89;;;;
2021/07/13 18:47:18;;;;;;;12.6;9.8;;;;;;;26.5;100;97956.77;;;;
2021/07/13 18:57:23;;;;;;;9.7;8.4;;;;;;;26;100;97947.92;;;;
2021/07/13 19:07:19;;;;;;;12.4;8.6;;;;;;;25.46;100;97967.45;;;;
2021/07/13 19:17:20;;;;;;;15.5;10.9;;;;;;;25.2;100;97990.34;;;;
2021/07/13 19:27:21;;;;;;;16.1;11;;;;;;;24.75;100;97989.83;;;;
2021/07/13 19:37:30;;;;;;;13.7;11.5;;;;;;;24.42;100;97979.67;;;;
2021/07/13 19:47:22;;;;;;;18.7;10.8;;;;;;;24.08;100;97981.64;;;;
2021/07/13 19:57:22;;;;;;;10.8;9.6;;;;;;;23.79;100;97976.45;;;;
2021/07/13 20:07:22;;;;;;;12;9.9;;;;;;;23.52;100;97975.55;;;;
2021/07/13 20:17:23;;;;;;;12.2;10.1;;;;;;;23.33;100;97973.33;;;;
2021/07/13 20:27:24;;;;;;;17.9;12.7;;;;;;;23.19;100;97959.7;;;;
2021/07/13 20:37:24;;;;;;;16.8;13;;;;;;;23.1;100;97956.64;;;;
2021/07/13 20:47:24;;;;;;;18.1;12.5;;;;;;;23;100;97947.31;;;;
2021/07/13 20:57:24;;;;;;;16.3;10.3;;;;;;;22.83;100;97949.02;;;;
2021/07/13 21:07:24;;;;;;;16.1;10.7;;;;;;;22.65;100;97964.02;;;;
2021/07/13 21:17:25;;;;;;;19;11.7;;;;;;;22.42;100;97973.55;;;;
2021/07/13 21:27:25;;;;;;;14.5;12;;;;;;;22.44;100;97984.93;;;;
2021/07/13 21:37:25;;;;;;;11.5;9.9;;;;;;;22.61;100;97993.47;;;;
2021/07/13 21:47:26;;;;;;;14.7;9.9;;;;;;;22.64;100;98001.69;;;;
2021/07/13 21:57:26;;;;;;;11.1;9.1;;;;;;;22.82;100;97996.11;;;;
2021/07/13 22:07:26;;;;;;;12.5;9.3;;;;;;;22.93;100;98003.11;;;;
2021/07/13 22:17:27;;;;;;;15.5;8.7;;;;;;;22.97;100;97992.09;;;;
2021/07/13 22:27:27;;;;;;;14.3;10.1;;;;;;;22.9;100;97997.64;;;;
2021/07/13 22:37:27;;;;;;;10.9;9.8;;;;;;;22.76;100;97997.73;;;;
2021/07/13 22:47:28;;;;;;;13.1;9.4;;;;;;;22.59;100;98000.13;;;;
2021/07/13 22:57:28;;;;;;;14.9;10.3;;;;;;;22.43;100;98004.54;;;;
2021/07/13 23:07:28;;;;;;;15.9;11.7;;;;;;;22.35;100;98012.02;;;;
2021/07/13 23:17:29;;;;;;;13.8;11.2;;;;;;;22.06;100;98019.6;;;;
2021/07/13 23:27:29;;;;;;;12.3;10.4;;;;;;;21.85;100;98025.11;;;;
2021/07/13 23:37:29;;;;;;;15.8;12.1;;;;;;;21.66;100;98014.55;;;;
2021/07/13 23:47:29;;;;;;;14.3;12.1;;;;;;;21.54;100;98018.5;;;;
2021/07/13 23:57:29;;;;;;;14;12.6;;;;;;;21.41;100;98020.08;;;;
